sensor_id;sensor_type;location;lat;lon;timestamp;P1;durP1;ratioP1;P2;durP2;ratioP2
42726;SDS011;28372;56.832;60.658;2023-09-12T00:00:23;4.38;;;2.85;;
42726;SDS011;28372;56.832;60.658;2023-09-12T00:02:51;4.53;;;2.63;;
42726;SDS011;28372;56.832;60.658;2023-09-12T00:05:18;4.50;;;2.65;;
42726;SDS011;28372;56.832;60.658;2023-09-12T00:07:46;5.10;;;2.83;;
42726;SDS011;28372;56.832;60.658;2023-09-12T00:10:14;5.72;;;2.90;;
42726;SDS011;28372;56.832;60.658;2023-09-12T00:12:41;4.65;;;2.90;;
42726;SDS011;28372;56.832;60.658;2023-09-12T00:15:09;5.38;;;2.78;;
42726;SDS011;28372;56.832;60.658;2023-09-12T00:17:37;5.32;;;3.00;;
42726;SDS011;28372;56.832;60.658;2023-09-12T00:20:05;5.53;;;2.80;;
42726;SDS011;28372;56.832;60.658;2023-09-12T00:22:34;5.82;;;2.70;;
42726;SDS011;28372;56.832;60.658;2023-09-12T00:25:02;7.28;;;3.15;;
42726;SDS011;28372;56.832;60.658;2023-09-12T00:27:30;4.03;;;2.53;;
42726;SDS011;28372;56.832;60.658;2023-09-12T00:29:58;4.43;;;2.67;;
42726;SDS011;28372;56.832;60.658;2023-09-12T00:32:26;6.65;;;2.80;;
42726;SDS011;28372;56.832;60.658;2023-09-12T00:34:54;5.28;;;2.85;;
42726;SDS011;28372;56.832;60.658;2023-09-12T00:37:21;5.72;;;2.60;;
42726;SDS011;28372;56.832;60.658;2023-09-12T00:39:49;5.70;;;3.10;;
42726;SDS011;28372;56.832;60.658;2023-09-12T00:42:17;5.25;;;3.10;;
42726;SDS011;28372;56.832;60.658;2023-09-12T00:44:46;4.90;;;3.13;;
42726;SDS011;28372;56.832;60.658;2023-09-12T00:47:13;3.85;;;2.55;;
42726;SDS011;28372;56.832;60.658;2023-09-12T00:49:42;6.28;;;3.10;;
42726;SDS011;28372;56.832;60.658;2023-09-12T00:52:15;6.15;;;3.20;;
42726;SDS011;28372;56.832;60.658;2023-09-12T00:54:45;5.07;;;3.00;;
42726;SDS011;28372;56.832;60.658;2023-09-12T00:57:13;5.18;;;2.97;;
42726;SDS011;28372;56.832;60.658;2023-09-12T00:59:41;6.18;;;3.30;;
42726;SDS011;28372;56.832;60.658;2023-09-12T01:02:08;6.18;;;3.40;;
42726;SDS011;28372;56.832;60.658;2023-09-12T01:04:36;5.55;;;3.10;;
42726;SDS011;28372;56.832;60.658;2023-09-12T01:07:04;5.95;;;3.13;;
42726;SDS011;28372;56.832;60.658;2023-09-12T01:09:32;5.88;;;3.22;;
42726;SDS011;28372;56.832;60.658;2023-09-12T01:12:00;6.78;;;3.38;;
42726;SDS011;28372;56.832;60.658;2023-09-12T01:14:31;5.25;;;3.20;;
42726;SDS011;28372;56.832;60.658;2023-09-12T01:16:59;5.20;;;3.22;;
42726;SDS011;28372;56.832;60.658;2023-09-12T01:19:28;5.10;;;3.10;;
42726;SDS011;28372;56.832;60.658;2023-09-12T01:27:52;4.57;;;3.00;;
42726;SDS011;28372;56.832;60.658;2023-09-12T01:30:25;7.25;;;3.05;;
42726;SDS011;28372;56.832;60.658;2023-09-12T01:32:55;7.68;;;3.30;;
42726;SDS011;28372;56.832;60.658;2023-09-12T01:35:23;4.68;;;3.13;;
42726;SDS011;28372;56.832;60.658;2023-09-12T01:37:51;4.90;;;3.10;;
42726;SDS011;28372;56.832;60.658;2023-09-12T01:40:19;6.15;;;3.58;;
42726;SDS011;28372;56.832;60.658;2023-09-12T01:42:56;7.25;;;3.40;;
42726;SDS011;28372;56.832;60.658;2023-09-12T01:45:27;5.85;;;3.50;;
42726;SDS011;28372;56.832;60.658;2023-09-12T01:47:55;5.47;;;3.50;;
42726;SDS011;28372;56.832;60.658;2023-09-12T01:50:23;7.60;;;3.20;;
42726;SDS011;28372;56.832;60.658;2023-09-12T01:52:55;7.07;;;4.10;;
42726;SDS011;28372;56.832;60.658;2023-09-12T01:55:23;6.43;;;3.28;;
42726;SDS011;28372;56.832;60.658;2023-09-12T01:57:54;5.07;;;3.10;;
42726;SDS011;28372;56.832;60.658;2023-09-12T02:00:42;5.80;;;3.13;;
42726;SDS011;28372;56.832;60.658;2023-09-12T02:03:10;7.05;;;3.22;;
42726;SDS011;28372;56.832;60.658;2023-09-12T02:05:38;6.88;;;3.53;;
42726;SDS011;28372;56.832;60.658;2023-09-12T02:08:06;5.45;;;3.35;;
42726;SDS011;28372;56.832;60.658;2023-09-12T02:10:34;5.85;;;3.13;;
42726;SDS011;28372;56.832;60.658;2023-09-12T02:13:02;5.47;;;3.20;;
42726;SDS011;28372;56.832;60.658;2023-09-12T02:15:30;8.02;;;3.40;;
42726;SDS011;28372;56.832;60.658;2023-09-12T02:17:58;6.10;;;3.40;;
42726;SDS011;28372;56.832;60.658;2023-09-12T02:20:26;4.93;;;3.03;;
42726;SDS011;28372;56.832;60.658;2023-09-12T02:22:54;6.18;;;3.03;;
42726;SDS011;28372;56.832;60.658;2023-09-12T02:25:22;5.55;;;3.40;;
42726;SDS011;28372;56.832;60.658;2023-09-12T02:27:49;5.85;;;2.97;;
42726;SDS011;28372;56.832;60.658;2023-09-12T02:30:17;5.32;;;3.35;;
42726;SDS011;28372;56.832;60.658;2023-09-12T02:32:45;6.85;;;3.00;;
42726;SDS011;28372;56.832;60.658;2023-09-12T02:35:13;5.95;;;3.40;;
42726;SDS011;28372;56.832;60.658;2023-09-12T02:37:41;7.97;;;3.35;;
42726;SDS011;28372;56.832;60.658;2023-09-12T02:40:09;6.60;;;3.22;;
42726;SDS011;28372;56.832;60.658;2023-09-12T02:42:38;6.10;;;3.17;;
42726;SDS011;28372;56.832;60.658;2023-09-12T02:45:06;6.45;;;3.00;;
42726;SDS011;28372;56.832;60.658;2023-09-12T02:47:34;5.00;;;2.97;;
42726;SDS011;28372;56.832;60.658;2023-09-12T02:50:02;5.22;;;3.20;;
42726;SDS011;28372;56.832;60.658;2023-09-12T02:52:31;7.30;;;3.22;;
42726;SDS011;28372;56.832;60.658;2023-09-12T02:54:59;4.50;;;3.00;;
42726;SDS011;28372;56.832;60.658;2023-09-12T02:57:29;5.72;;;3.10;;
42726;SDS011;28372;56.832;60.658;2023-09-12T02:59:57;6.22;;;3.85;;
42726;SDS011;28372;56.832;60.658;2023-09-12T03:02:25;7.18;;;3.28;;
42726;SDS011;28372;56.832;60.658;2023-09-12T03:04:52;4.93;;;3.03;;
42726;SDS011;28372;56.832;60.658;2023-09-12T03:07:21;6.43;;;3.20;;
42726;SDS011;28372;56.832;60.658;2023-09-12T03:09:49;6.88;;;2.95;;
42726;SDS011;28372;56.832;60.658;2023-09-12T03:12:16;5.85;;;3.00;;
42726;SDS011;28372;56.832;60.658;2023-09-12T03:14:44;5.18;;;2.75;;
42726;SDS011;28372;56.832;60.658;2023-09-12T03:17:12;5.20;;;2.90;;
42726;SDS011;28372;56.832;60.658;2023-09-12T03:19:40;8.57;;;3.13;;
42726;SDS011;28372;56.832;60.658;2023-09-12T03:22:08;6.03;;;3.03;;
42726;SDS011;28372;56.832;60.658;2023-09-12T03:24:36;7.15;;;2.90;;
42726;SDS011;28372;56.832;60.658;2023-09-12T03:27:04;5.10;;;3.05;;
42726;SDS011;28372;56.832;60.658;2023-09-12T03:29:32;5.18;;;2.95;;
42726;SDS011;28372;56.832;60.658;2023-09-12T03:32:00;7.85;;;3.03;;
42726;SDS011;28372;56.832;60.658;2023-09-12T03:34:28;4.30;;;2.65;;
42726;SDS011;28372;56.832;60.658;2023-09-12T03:36:56;6.53;;;3.10;;
42726;SDS011;28372;56.832;60.658;2023-09-12T03:39:24;5.93;;;2.80;;
42726;SDS011;28372;56.832;60.658;2023-09-12T03:41:52;4.97;;;2.65;;
42726;SDS011;28372;56.832;60.658;2023-09-12T03:44:20;7.00;;;2.75;;
42726;SDS011;28372;56.832;60.658;2023-09-12T03:46:48;4.57;;;2.42;;
42726;SDS011;28372;56.832;60.658;2023-09-12T03:49:17;5.20;;;2.80;;
42726;SDS011;28372;56.832;60.658;2023-09-12T03:51:44;5.40;;;2.55;;
42726;SDS011;28372;56.832;60.658;2023-09-12T03:54:12;5.00;;;2.53;;
42726;SDS011;28372;56.832;60.658;2023-09-12T03:56:40;6.40;;;3.00;;
42726;SDS011;28372;56.832;60.658;2023-09-12T03:59:12;5.43;;;2.95;;
42726;SDS011;28372;56.832;60.658;2023-09-12T04:01:42;6.22;;;3.08;;
42726;SDS011;28372;56.832;60.658;2023-09-12T04:04:10;5.32;;;2.80;;
42726;SDS011;28372;56.832;60.658;2023-09-12T04:06:38;5.30;;;2.80;;
42726;SDS011;28372;56.832;60.658;2023-09-12T04:09:06;6.32;;;2.80;;
42726;SDS011;28372;56.832;60.658;2023-09-12T04:11:33;5.60;;;3.30;;
42726;SDS011;28372;56.832;60.658;2023-09-12T04:14:16;5.35;;;2.63;;
42726;SDS011;28372;56.832;60.658;2023-09-12T04:16:43;7.57;;;2.70;;
42726;SDS011;28372;56.832;60.658;2023-09-12T04:19:15;5.90;;;2.78;;
42726;SDS011;28372;56.832;60.658;2023-09-12T04:21:43;4.13;;;2.67;;
42726;SDS011;28372;56.832;60.658;2023-09-12T04:24:10;5.53;;;3.00;;
42726;SDS011;28372;56.832;60.658;2023-09-12T04:26:38;7.07;;;2.90;;
42726;SDS011;28372;56.832;60.658;2023-09-12T04:29:06;5.63;;;2.70;;
42726;SDS011;28372;56.832;60.658;2023-09-12T04:31:34;6.07;;;2.70;;
42726;SDS011;28372;56.832;60.658;2023-09-12T04:34:02;5.68;;;2.47;;
42726;SDS011;28372;56.832;60.658;2023-09-12T04:36:29;6.97;;;2.85;;
42726;SDS011;28372;56.832;60.658;2023-09-12T04:38:57;5.13;;;3.00;;
42726;SDS011;28372;56.832;60.658;2023-09-12T04:41:25;7.55;;;2.90;;
42726;SDS011;28372;56.832;60.658;2023-09-12T04:43:53;5.07;;;2.45;;
42726;SDS011;28372;56.832;60.658;2023-09-12T04:46:20;5.40;;;2.70;;
42726;SDS011;28372;56.832;60.658;2023-09-12T04:48:48;5.30;;;2.60;;
42726;SDS011;28372;56.832;60.658;2023-09-12T04:51:16;4.18;;;2.40;;
42726;SDS011;28372;56.832;60.658;2023-09-12T04:53:44;3.80;;;2.60;;
42726;SDS011;28372;56.832;60.658;2023-09-12T04:56:12;8.38;;;2.75;;
42726;SDS011;28372;56.832;60.658;2023-09-12T04:58:39;5.88;;;2.63;;
42726;SDS011;28372;56.832;60.658;2023-09-12T05:01:08;7.60;;;2.90;;
42726;SDS011;28372;56.832;60.658;2023-09-12T05:03:36;4.80;;;2.60;;
42726;SDS011;28372;56.832;60.658;2023-09-12T05:06:04;5.38;;;3.17;;
42726;SDS011;28372;56.832;60.658;2023-09-12T05:08:32;5.20;;;2.97;;
42726;SDS011;28372;56.832;60.658;2023-09-12T05:13:46;6.65;;;3.13;;
42726;SDS011;28372;56.832;60.658;2023-09-12T05:16:16;7.00;;;3.15;;
42726;SDS011;28372;56.832;60.658;2023-09-12T05:18:45;9.27;;;2.80;;
42726;SDS011;28372;56.832;60.658;2023-09-12T05:21:13;7.05;;;2.88;;
42726;SDS011;28372;56.832;60.658;2023-09-12T05:23:40;6.43;;;2.78;;
42726;SDS011;28372;56.832;60.658;2023-09-12T05:26:08;8.25;;;2.80;;
42726;SDS011;28372;56.832;60.658;2023-09-12T05:28:36;6.40;;;2.80;;
42726;SDS011;28372;56.832;60.658;2023-09-12T05:31:04;6.45;;;2.60;;
42726;SDS011;28372;56.832;60.658;2023-09-12T05:33:33;6.72;;;2.83;;
42726;SDS011;28372;56.832;60.658;2023-09-12T05:36:02;6.05;;;2.80;;
42726;SDS011;28372;56.832;60.658;2023-09-12T05:38:30;6.15;;;2.60;;
42726;SDS011;28372;56.832;60.658;2023-09-12T05:40:57;4.65;;;2.50;;
42726;SDS011;28372;56.832;60.658;2023-09-12T05:43:25;8.90;;;3.00;;
42726;SDS011;28372;56.832;60.658;2023-09-12T05:45:53;6.07;;;4.10;;
42726;SDS011;28372;56.832;60.658;2023-09-12T05:48:21;5.32;;;2.92;;
42726;SDS011;28372;56.832;60.658;2023-09-12T05:50:49;5.80;;;2.80;;
42726;SDS011;28372;56.832;60.658;2023-09-12T05:53:16;5.32;;;2.80;;
42726;SDS011;28372;56.832;60.658;2023-09-12T05:55:44;6.93;;;3.05;;
42726;SDS011;28372;56.832;60.658;2023-09-12T05:58:12;6.60;;;2.80;;
42726;SDS011;28372;56.832;60.658;2023-09-12T06:00:40;4.22;;;2.80;;
42726;SDS011;28372;56.832;60.658;2023-09-12T06:03:08;5.72;;;2.60;;
42726;SDS011;28372;56.832;60.658;2023-09-12T06:05:36;4.65;;;2.58;;
42726;SDS011;28372;56.832;60.658;2023-09-12T06:08:04;5.35;;;2.88;;
42726;SDS011;28372;56.832;60.658;2023-09-12T06:10:32;6.13;;;2.58;;
42726;SDS011;28372;56.832;60.658;2023-09-12T06:13:01;5.95;;;2.83;;
42726;SDS011;28372;56.832;60.658;2023-09-12T06:15:28;4.88;;;2.85;;
42726;SDS011;28372;56.832;60.658;2023-09-12T06:17:56;4.07;;;2.65;;
42726;SDS011;28372;56.832;60.658;2023-09-12T06:20:24;6.63;;;2.90;;
42726;SDS011;28372;56.832;60.658;2023-09-12T06:22:52;5.82;;;2.80;;
42726;SDS011;28372;56.832;60.658;2023-09-12T06:25:20;4.53;;;2.90;;
42726;SDS011;28372;56.832;60.658;2023-09-12T06:27:48;5.35;;;3.00;;
42726;SDS011;28372;56.832;60.658;2023-09-12T06:30:19;6.43;;;2.80;;
42726;SDS011;28372;56.832;60.658;2023-09-12T06:32:47;7.43;;;2.90;;
42726;SDS011;28372;56.832;60.658;2023-09-12T06:35:15;7.63;;;2.78;;
42726;SDS011;28372;56.832;60.658;2023-09-12T06:37:43;7.15;;;3.10;;
42726;SDS011;28372;56.832;60.658;2023-09-12T06:40:11;9.05;;;3.17;;
42726;SDS011;28372;56.832;60.658;2023-09-12T06:42:39;4.72;;;2.75;;
42726;SDS011;28372;56.832;60.658;2023-09-12T06:45:07;6.70;;;3.33;;
42726;SDS011;28372;56.832;60.658;2023-09-12T06:47:35;6.50;;;2.78;;
42726;SDS011;28372;56.832;60.658;2023-09-12T06:50:02;5.40;;;2.90;;
42726;SDS011;28372;56.832;60.658;2023-09-12T06:52:33;6.03;;;3.00;;
42726;SDS011;28372;56.832;60.658;2023-09-12T06:55:01;7.10;;;2.80;;
42726;SDS011;28372;56.832;60.658;2023-09-12T06:57:29;6.15;;;3.70;;
42726;SDS011;28372;56.832;60.658;2023-09-12T06:59:57;6.32;;;3.50;;
42726;SDS011;28372;56.832;60.658;2023-09-12T07:02:26;5.80;;;2.92;;
42726;SDS011;28372;56.832;60.658;2023-09-12T07:04:54;6.53;;;2.75;;
42726;SDS011;28372;56.832;60.658;2023-09-12T07:07:23;7.53;;;3.10;;
42726;SDS011;28372;56.832;60.658;2023-09-12T07:09:50;5.07;;;2.63;;
42726;SDS011;28372;56.832;60.658;2023-09-12T07:12:18;7.05;;;2.75;;
42726;SDS011;28372;56.832;60.658;2023-09-12T07:14:46;8.25;;;2.88;;
42726;SDS011;28372;56.832;60.658;2023-09-12T07:17:14;4.93;;;2.90;;
42726;SDS011;28372;56.832;60.658;2023-09-12T07:19:41;5.55;;;2.92;;
42726;SDS011;28372;56.832;60.658;2023-09-12T07:22:11;5.78;;;2.78;;
42726;SDS011;28372;56.832;60.658;2023-09-12T07:24:40;5.75;;;2.60;;
42726;SDS011;28372;56.832;60.658;2023-09-12T07:27:08;8.45;;;3.55;;
42726;SDS011;28372;56.832;60.658;2023-09-12T07:29:36;8.25;;;3.10;;
42726;SDS011;28372;56.832;60.658;2023-09-12T07:32:04;5.57;;;2.95;;
42726;SDS011;28372;56.832;60.658;2023-09-12T07:34:32;5.75;;;2.80;;
42726;SDS011;28372;56.832;60.658;2023-09-12T07:37:00;4.05;;;2.80;;
42726;SDS011;28372;56.832;60.658;2023-09-12T07:39:28;5.68;;;2.40;;
42726;SDS011;28372;56.832;60.658;2023-09-12T07:41:55;4.43;;;2.60;;
42726;SDS011;28372;56.832;60.658;2023-09-12T07:44:23;5.50;;;3.00;;
42726;SDS011;28372;56.832;60.658;2023-09-12T07:46:51;6.57;;;3.20;;
42726;SDS011;28372;56.832;60.658;2023-09-12T07:49:19;7.85;;;3.80;;
42726;SDS011;28372;56.832;60.658;2023-09-12T07:51:47;5.82;;;2.60;;
42726;SDS011;28372;56.832;60.658;2023-09-12T07:54:14;5.72;;;2.90;;
42726;SDS011;28372;56.832;60.658;2023-09-12T07:56:42;5.22;;;2.75;;
42726;SDS011;28372;56.832;60.658;2023-09-12T07:59:10;5.63;;;2.70;;
42726;SDS011;28372;56.832;60.658;2023-09-12T08:01:39;4.03;;;2.58;;
42726;SDS011;28372;56.832;60.658;2023-09-12T08:04:07;5.28;;;2.50;;
42726;SDS011;28372;56.832;60.658;2023-09-12T08:06:35;5.65;;;2.70;;
42726;SDS011;28372;56.832;60.658;2023-09-12T08:09:22;5.57;;;2.53;;
42726;SDS011;28372;56.832;60.658;2023-09-12T08:11:50;5.25;;;2.72;;
42726;SDS011;28372;56.832;60.658;2023-09-12T08:14:17;5.90;;;2.90;;
42726;SDS011;28372;56.832;60.658;2023-09-12T08:16:48;5.78;;;2.50;;
42726;SDS011;28372;56.832;60.658;2023-09-12T08:19:16;4.10;;;2.55;;
42726;SDS011;28372;56.832;60.658;2023-09-12T08:21:45;5.82;;;2.83;;
42726;SDS011;28372;56.832;60.658;2023-09-12T08:24:13;7.45;;;2.92;;
42726;SDS011;28372;56.832;60.658;2023-09-12T08:26:41;6.25;;;2.65;;
42726;SDS011;28372;56.832;60.658;2023-09-12T08:29:08;6.72;;;3.05;;
42726;SDS011;28372;56.832;60.658;2023-09-12T08:31:36;4.63;;;2.40;;
42726;SDS011;28372;56.832;60.658;2023-09-12T08:34:04;5.50;;;2.83;;
42726;SDS011;28372;56.832;60.658;2023-09-12T08:36:31;4.03;;;2.70;;
42726;SDS011;28372;56.832;60.658;2023-09-12T08:38:59;4.97;;;2.72;;
42726;SDS011;28372;56.832;60.658;2023-09-12T08:41:28;4.78;;;2.95;;
42726;SDS011;28372;56.832;60.658;2023-09-12T08:43:55;4.47;;;2.45;;
42726;SDS011;28372;56.832;60.658;2023-09-12T08:46:23;4.32;;;2.50;;
42726;SDS011;28372;56.832;60.658;2023-09-12T08:48:51;4.82;;;2.40;;
42726;SDS011;28372;56.832;60.658;2023-09-12T08:51:22;3.58;;;2.40;;
42726;SDS011;28372;56.832;60.658;2023-09-12T08:54:09;5.85;;;2.35;;
42726;SDS011;28372;56.832;60.658;2023-09-12T08:56:39;4.03;;;1.90;;
42726;SDS011;28372;56.832;60.658;2023-09-12T08:59:08;4.65;;;2.20;;
42726;SDS011;28372;56.832;60.658;2023-09-12T09:01:37;6.07;;;2.63;;
42726;SDS011;28372;56.832;60.658;2023-09-12T09:04:07;6.00;;;2.30;;
42726;SDS011;28372;56.832;60.658;2023-09-12T09:06:35;5.13;;;2.50;;
42726;SDS011;28372;56.832;60.658;2023-09-12T09:09:05;4.72;;;2.40;;
42726;SDS011;28372;56.832;60.658;2023-09-12T09:11:35;3.83;;;2.50;;
42726;SDS011;28372;56.832;60.658;2023-09-12T09:14:03;4.53;;;2.20;;
42726;SDS011;28372;56.832;60.658;2023-09-12T09:16:31;4.57;;;2.30;;
42726;SDS011;28372;56.832;60.658;2023-09-12T09:19:00;6.18;;;2.63;;
42726;SDS011;28372;56.832;60.658;2023-09-12T09:21:30;4.53;;;2.30;;
42726;SDS011;28372;56.832;60.658;2023-09-12T09:24:00;5.47;;;2.25;;
42726;SDS011;28372;56.832;60.658;2023-09-12T09:27:07;4.65;;;2.10;;
42726;SDS011;28372;56.832;60.658;2023-09-12T09:29:28;5.03;;;2.00;;
42726;SDS011;28372;56.832;60.658;2023-09-12T09:32:01;3.63;;;2.00;;
42726;SDS011;28372;56.832;60.658;2023-09-12T09:34:31;5.30;;;1.98;;
42726;SDS011;28372;56.832;60.658;2023-09-12T09:36:59;4.90;;;2.10;;
42726;SDS011;28372;56.832;60.658;2023-09-12T09:39:30;5.55;;;2.10;;
42726;SDS011;28372;56.832;60.658;2023-09-12T09:41:58;4.32;;;2.17;;
42726;SDS011;28372;56.832;60.658;2023-09-12T09:44:26;3.60;;;1.98;;
42726;SDS011;28372;56.832;60.658;2023-09-12T09:46:54;5.10;;;2.30;;
42726;SDS011;28372;56.832;60.658;2023-09-12T09:49:25;3.83;;;2.08;;
42726;SDS011;28372;56.832;60.658;2023-09-12T09:51:54;4.70;;;2.15;;
42726;SDS011;28372;56.832;60.658;2023-09-12T09:54:24;4.57;;;2.20;;
42726;SDS011;28372;56.832;60.658;2023-09-12T09:56:53;4.95;;;1.92;;
42726;SDS011;28372;56.832;60.658;2023-09-12T09:59:26;3.80;;;1.80;;
42726;SDS011;28372;56.832;60.658;2023-09-12T10:01:55;3.92;;;1.85;;
42726;SDS011;28372;56.832;60.658;2023-09-12T10:04:26;4.43;;;1.90;;
42726;SDS011;28372;56.832;60.658;2023-09-12T10:06:56;3.20;;;1.70;;
42726;SDS011;28372;56.832;60.658;2023-09-12T10:09:26;2.80;;;1.60;;
42726;SDS011;28372;56.832;60.658;2023-09-12T10:11:55;4.65;;;1.88;;
42726;SDS011;28372;56.832;60.658;2023-09-12T10:14:26;4.75;;;2.08;;
42726;SDS011;28372;56.832;60.658;2023-09-12T10:16:57;3.40;;;1.88;;
42726;SDS011;28372;56.832;60.658;2023-09-12T10:19:43;5.53;;;2.08;;
42726;SDS011;28372;56.832;60.658;2023-09-12T10:22:34;4.95;;;1.92;;
42726;SDS011;28372;56.832;60.658;2023-09-12T10:25:06;4.65;;;2.15;;
42726;SDS011;28372;56.832;60.658;2023-09-12T10:27:35;5.03;;;2.28;;
42726;SDS011;28372;56.832;60.658;2023-09-12T10:30:03;6.47;;;2.33;;
42726;SDS011;28372;56.832;60.658;2023-09-12T10:32:32;4.82;;;1.90;;
42726;SDS011;28372;56.832;60.658;2023-09-12T10:35:01;6.43;;;2.53;;
42726;SDS011;28372;56.832;60.658;2023-09-12T10:37:30;5.22;;;2.20;;
42726;SDS011;28372;56.832;60.658;2023-09-12T10:40:21;3.27;;;2.10;;
42726;SDS011;28372;56.832;60.658;2023-09-12T10:42:49;5.38;;;2.42;;
42726;SDS011;28372;56.832;60.658;2023-09-12T10:45:20;5.45;;;2.67;;
42726;SDS011;28372;56.832;60.658;2023-09-12T10:47:48;4.82;;;2.05;;
42726;SDS011;28372;56.832;60.658;2023-09-12T10:50:16;5.00;;;2.08;;
42726;SDS011;28372;56.832;60.658;2023-09-12T10:52:45;5.25;;;2.17;;
42726;SDS011;28372;56.832;60.658;2023-09-12T10:55:16;3.85;;;1.75;;
42726;SDS011;28372;56.832;60.658;2023-09-12T10:58:00;3.70;;;1.77;;
42726;SDS011;28372;56.832;60.658;2023-09-12T11:00:32;7.72;;;2.08;;
42726;SDS011;28372;56.832;60.658;2023-09-12T11:05:56;5.20;;;1.98;;
42726;SDS011;28372;56.832;60.658;2023-09-12T11:08:24;4.97;;;2.08;;
42726;SDS011;28372;56.832;60.658;2023-09-12T11:13:46;4.55;;;1.80;;
42726;SDS011;28372;56.832;60.658;2023-09-12T11:16:30;4.03;;;2.00;;
42726;SDS011;28372;56.832;60.658;2023-09-12T11:19:17;5.35;;;2.20;;
42726;SDS011;28372;56.832;60.658;2023-09-12T11:21:47;5.95;;;1.88;;
42726;SDS011;28372;56.832;60.658;2023-09-12T11:24:17;5.85;;;2.25;;
42726;SDS011;28372;56.832;60.658;2023-09-12T11:26:55;4.78;;;1.73;;
42726;SDS011;28372;56.832;60.658;2023-09-12T11:29:34;4.30;;;1.90;;
42726;SDS011;28372;56.832;60.658;2023-09-12T11:32:04;3.83;;;1.60;;
42726;SDS011;28372;56.832;60.658;2023-09-12T11:34:51;4.30;;;1.80;;
42726;SDS011;28372;56.832;60.658;2023-09-12T11:37:26;4.05;;;1.90;;
42726;SDS011;28372;56.832;60.658;2023-09-12T11:39:55;5.05;;;2.03;;
42726;SDS011;28372;56.832;60.658;2023-09-12T11:42:25;7.65;;;2.20;;
42726;SDS011;28372;56.832;60.658;2023-09-12T11:44:53;3.20;;;1.80;;
42726;SDS011;28372;56.832;60.658;2023-09-12T11:47:21;4.32;;;1.73;;
42726;SDS011;28372;56.832;60.658;2023-09-12T11:49:50;5.95;;;1.80;;
42726;SDS011;28372;56.832;60.658;2023-09-12T11:52:24;3.78;;;1.90;;
42726;SDS011;28372;56.832;60.658;2023-09-12T11:54:53;2.72;;;1.67;;
42726;SDS011;28372;56.832;60.658;2023-09-12T11:57:21;4.03;;;1.90;;
42726;SDS011;28372;56.832;60.658;2023-09-12T11:59:49;3.97;;;2.03;;
42726;SDS011;28372;56.832;60.658;2023-09-12T12:02:18;4.25;;;1.90;;
42726;SDS011;28372;56.832;60.658;2023-09-12T12:04:46;4.35;;;1.80;;
42726;SDS011;28372;56.832;60.658;2023-09-12T12:07:15;6.78;;;2.00;;
42726;SDS011;28372;56.832;60.658;2023-09-12T12:09:42;3.80;;;1.70;;
42726;SDS011;28372;56.832;60.658;2023-09-12T12:12:12;5.80;;;2.38;;
42726;SDS011;28372;56.832;60.658;2023-09-12T12:14:40;9.27;;;2.40;;
42726;SDS011;28372;56.832;60.658;2023-09-12T12:17:09;4.65;;;2.13;;
42726;SDS011;28372;56.832;60.658;2023-09-12T12:19:39;8.02;;;2.33;;
42726;SDS011;28372;56.832;60.658;2023-09-12T12:22:06;3.63;;;2.20;;
42726;SDS011;28372;56.832;60.658;2023-09-12T12:24:41;4.47;;;2.00;;
42726;SDS011;28372;56.832;60.658;2023-09-12T12:27:11;4.03;;;1.67;;
42726;SDS011;28372;56.832;60.658;2023-09-12T12:29:41;3.55;;;1.80;;
42726;SDS011;28372;56.832;60.658;2023-09-12T12:32:11;3.40;;;1.73;;
42726;SDS011;28372;56.832;60.658;2023-09-12T12:34:47;4.22;;;1.83;;
42726;SDS011;28372;56.832;60.658;2023-09-12T12:37:35;4.40;;;1.60;;
42726;SDS011;28372;56.832;60.658;2023-09-12T12:40:04;5.68;;;1.80;;
42726;SDS011;28372;56.832;60.658;2023-09-12T12:42:34;5.53;;;2.00;;
42726;SDS011;28372;56.832;60.658;2023-09-12T12:45:21;4.07;;;1.88;;
42726;SDS011;28372;56.832;60.658;2023-09-12T12:47:59;4.05;;;1.75;;
42726;SDS011;28372;56.832;60.658;2023-09-12T12:50:28;4.32;;;2.08;;
42726;SDS011;28372;56.832;60.658;2023-09-12T12:52:56;4.47;;;1.95;;
42726;SDS011;28372;56.832;60.658;2023-09-12T12:55:25;4.07;;;1.90;;
42726;SDS011;28372;56.832;60.658;2023-09-12T12:57:53;4.15;;;2.00;;
42726;SDS011;28372;56.832;60.658;2023-09-12T13:00:21;4.18;;;1.88;;
42726;SDS011;28372;56.832;60.658;2023-09-12T13:02:50;5.78;;;1.90;;
42726;SDS011;28372;56.832;60.658;2023-09-12T13:05:24;3.97;;;1.80;;
42726;SDS011;28372;56.832;60.658;2023-09-12T13:07:54;3.67;;;1.88;;
42726;SDS011;28372;56.832;60.658;2023-09-12T13:10:22;6.90;;;1.80;;
42726;SDS011;28372;56.832;60.658;2023-09-12T13:12:50;4.45;;;2.22;;
42726;SDS011;28372;56.832;60.658;2023-09-12T13:15:18;5.68;;;2.10;;
42726;SDS011;28372;56.832;60.658;2023-09-12T13:17:46;3.75;;;2.10;;
42726;SDS011;28372;56.832;60.658;2023-09-12T13:20:13;4.60;;;1.88;;
42726;SDS011;28372;56.832;60.658;2023-09-12T13:22:41;4.45;;;2.20;;
42726;SDS011;28372;56.832;60.658;2023-09-12T13:25:10;5.68;;;2.20;;
42726;SDS011;28372;56.832;60.658;2023-09-12T13:27:39;8.07;;;2.30;;
42726;SDS011;28372;56.832;60.658;2023-09-12T13:30:06;6.40;;;2.08;;
42726;SDS011;28372;56.832;60.658;2023-09-12T13:32:34;3.95;;;2.22;;
42726;SDS011;28372;56.832;60.658;2023-09-12T13:35:02;4.97;;;2.35;;
42726;SDS011;28372;56.832;60.658;2023-09-12T13:37:30;5.25;;;2.17;;
42726;SDS011;28372;56.832;60.658;2023-09-12T13:39:58;8.07;;;2.08;;
42726;SDS011;28372;56.832;60.658;2023-09-12T13:42:28;6.60;;;2.33;;
42726;SDS011;28372;56.832;60.658;2023-09-12T13:44:58;6.72;;;2.22;;
42726;SDS011;28372;56.832;60.658;2023-09-12T13:47:26;7.15;;;2.17;;
42726;SDS011;28372;56.832;60.658;2023-09-12T13:49:53;5.45;;;2.30;;
42726;SDS011;28372;56.832;60.658;2023-09-12T13:52:21;4.32;;;1.92;;
42726;SDS011;28372;56.832;60.658;2023-09-12T13:54:49;3.85;;;2.00;;
42726;SDS011;28372;56.832;60.658;2023-09-12T13:57:17;7.68;;;2.40;;
42726;SDS011;28372;56.832;60.658;2023-09-12T13:59:45;6.30;;;2.75;;
42726;SDS011;28372;56.832;60.658;2023-09-12T14:02:13;5.45;;;2.25;;
42726;SDS011;28372;56.832;60.658;2023-09-12T14:04:42;5.30;;;2.40;;
42726;SDS011;28372;56.832;60.658;2023-09-12T14:07:11;5.30;;;2.10;;
42726;SDS011;28372;56.832;60.658;2023-09-12T14:09:39;6.28;;;2.10;;
42726;SDS011;28372;56.832;60.658;2023-09-12T14:12:07;5.15;;;2.22;;
42726;SDS011;28372;56.832;60.658;2023-09-12T14:14:50;5.10;;;2.58;;
42726;SDS011;28372;56.832;60.658;2023-09-12T14:17:32;7.72;;;2.80;;
42726;SDS011;28372;56.832;60.658;2023-09-12T14:20:02;8.23;;;3.03;;
42726;SDS011;28372;56.832;60.658;2023-09-12T14:22:30;8.60;;;3.28;;
42726;SDS011;28372;56.832;60.658;2023-09-12T14:24:59;6.93;;;3.22;;
42726;SDS011;28372;56.832;60.658;2023-09-12T14:27:31;6.53;;;2.92;;
42726;SDS011;28372;56.832;60.658;2023-09-12T14:30:00;6.60;;;2.60;;
42726;SDS011;28372;56.832;60.658;2023-09-12T14:32:30;7.68;;;2.80;;
42726;SDS011;28372;56.832;60.658;2023-09-12T14:34:58;6.30;;;2.60;;
42726;SDS011;28372;56.832;60.658;2023-09-12T14:37:26;6.53;;;2.70;;
42726;SDS011;28372;56.832;60.658;2023-09-12T14:39:54;7.95;;;4.03;;
42726;SDS011;28372;56.832;60.658;2023-09-12T14:42:23;4.57;;;2.45;;
42726;SDS011;28372;56.832;60.658;2023-09-12T14:44:50;6.93;;;2.85;;
42726;SDS011;28372;56.832;60.658;2023-09-12T14:47:18;8.82;;;2.80;;
42726;SDS011;28372;56.832;60.658;2023-09-12T14:49:46;9.55;;;2.92;;
42726;SDS011;28372;56.832;60.658;2023-09-12T14:52:18;8.52;;;2.80;;
42726;SDS011;28372;56.832;60.658;2023-09-12T14:54:53;6.05;;;2.75;;
42726;SDS011;28372;56.832;60.658;2023-09-12T14:57:21;6.32;;;3.17;;
42726;SDS011;28372;56.832;60.658;2023-09-12T14:59:50;5.03;;;2.90;;